Time;durP1;ratioP1;P1;durP2;ratioP2;P2;SDS_P1;SDS_P2;PMS_P1;PMS_P2;Temp;Humidity;BMP_temperature;BMP_pressure;BME280_temperature;BME280_humidity;BME280_pressure;Samples;Min_cycle;Max_cycle;Signal;HPM_P1;HPM_P2
2022/09/30 00:00:42;;;;;;;;;26.50;21.75;;;;;14.23;54.90;100278.63;5074487;27;45412;-40
2022/09/30 00:03:07;;;;;;;;;25.75;23.50;;;;;14.21;55.02;100281.34;5092979;27;45772;-40
2022/09/30 00:05:33;;;;;;;;;25.25;22.00;;;;;14.19;54.67;100284.97;5096322;27;45558;-39
2022/09/30 00:07:58;;;;;;;;;23.25;19.75;;;;;14.15;54.74;100284.28;5074878;27;47886;-39
2022/09/30 00:10:23;;;;;;;;;26.75;22.25;;;;;14.14;54.83;100274.66;5095925;27;45194;-38
2022/09/30 00:12:51;;;;;;;;;25.00;21.00;;;;;14.11;54.76;100284.50;5069287;27;74592;-38
2022/09/30 00:15:16;;;;;;;;;24.50;21.50;;;;;14.11;55.19;100282.75;5077073;27;45367;-39
2022/09/30 00:17:42;;;;;;;;;28.00;22.50;;;;;14.09;54.94;100288.97;5090896;27;45296;-39
2022/09/30 00:20:07;;;;;;;;;26.25;22.25;;;;;14.10;54.94;100282.81;5084147;27;45206;-40
2022/09/30 00:22:32;;;;;;;;;24.50;21.00;;;;;14.09;55.16;100279.31;5089341;27;45598;-39
2022/09/30 00:24:58;;;;;;;;;22.25;19.50;;;;;14.08;55.04;100279.38;5092062;27;45430;-39
2022/09/30 00:27:23;;;;;;;;;20.00;19.25;;;;;14.04;55.25;100278.66;5087203;27;73044;-39
2022/09/30 00:29:49;;;;;;;;;24.50;20.25;;;;;14.05;55.21;100283.03;5080537;27;45327;-40
2022/09/30 00:32:15;;;;;;;;;23.50;20.00;;;;;14.03;55.37;100280.47;5098883;27;45323;-39
2022/09/30 00:34:40;;;;;;;;;32.25;22.00;;;;;14.00;54.98;100285.88;5100149;27;64350;-39
2022/09/30 00:37:07;;;;;;;;;27.25;24.25;;;;;13.98;54.90;100290.34;5083030;27;45297;-39
2022/09/30 00:39:36;;;;;;;;;21.75;18.50;;;;;13.95;54.94;100280.00;5099469;27;45241;-39
2022/09/30 00:42:05;;;;;;;;;22.75;20.75;;;;;13.96;55.35;100281.69;5097707;27;45567;-39
2022/09/30 00:44:49;;;;;;;;;23.75;20.50;;;;;13.96;55.45;100272.94;5095263;27;48165;-39
2022/09/30 00:47:37;;;;;;;;;28.25;21.75;;;;;13.95;55.23;100284.38;5095859;27;45289;-39
2022/09/30 00:50:27;;;;;;;;;21.25;19.25;;;;;13.95;55.48;100293.16;5077844;27;45472;-39
2022/09/30 00:53:11;;;;;;;;;23.00;19.00;;;;;13.95;55.27;100293.16;5098187;27;46938;-39
2022/09/30 00:55:47;;;;;;;;;24.00;22.00;;;;;13.93;55.20;100294.13;5083913;27;46134;-39
2022/09/30 00:58:28;;;;;;;;;24.75;21.75;;;;;13.89;55.40;100288.16;5080701;27;45450;-39
2022/09/30 01:00:54;;;;;;;;;23.00;22.50;;;;;13.85;55.30;100287.47;5094333;27;45247;-39
2022/09/30 01:03:21;;;;;;;;;24.50;23.00;;;;;13.86;55.66;100294.44;5070003;27;45253;-39
2022/09/30 01:05:47;;;;;;;;;23.25;20.75;;;;;13.85;55.50;100289.25;5062066;27;47220;-39
2022/09/30 01:08:13;;;;;;;;;19.50;16.50;;;;;13.84;55.34;100293.63;5089662;27;45470;-38
2022/09/30 01:10:38;;;;;;;;;22.75;17.75;;;;;13.83;55.25;100299.00;5076101;27;45274;-39
2022/09/30 01:13:04;;;;;;;;;25.25;22.50;;;;;13.80;55.87;100299.13;5089773;27;45482;-39
2022/09/30 01:15:42;;;;;;;;;24.50;19.75;;;;;13.78;55.32;100301.00;5099836;27;45800;-40
2022/09/30 01:18:19;;;;;;;;;21.50;20.25;;;;;13.77;55.64;100294.84;5078605;27;46029;-39
2022/09/30 01:20:56;;;;;;;;;23.75;21.25;;;;;13.77;55.86;100296.66;5069830;27;45347;-40
2022/09/30 01:23:41;;;;;;;;;20.00;18.75;;;;;13.74;55.35;100292.41;5066277;27;46224;-39
2022/09/30 01:26:20;;;;;;;;;17.00;16.50;;;;;13.74;55.56;100294.16;5080757;27;46281;-39
2022/09/30 01:29:14;;;;;;;;;18.50;17.50;;;;;13.74;55.19;100286.25;5094391;27;46275;-40
2022/09/30 01:31:56;;;;;;;;;23.25;19.00;;;;;13.73;55.51;100288.06;5094683;27;45423;-39
2022/09/30 01:34:24;;;;;;;;;22.00;16.75;;;;;13.73;55.15;100290.69;5076396;27;45530;-39
2022/09/30 01:37:12;;;;;;;;;17.00;15.00;;;;;13.72;55.41;100285.47;5081257;27;46853;-40
2022/09/30 01:39:46;;;;;;;;;22.75;19.50;;;;;13.73;55.51;100287.22;5093841;27;45252;-39
2022/09/30 01:42:13;;;;;;;;;18.25;16.25;;;;;13.72;55.61;100294.22;5068704;27;47251;-39
2022/09/30 01:45:08;;;;;;;;;19.00;17.00;;;;;13.72;55.12;100285.47;5077065;27;45322;-39
2022/09/30 01:47:42;;;;;;;;;19.75;17.00;;;;;13.71;55.46;100287.28;5073915;27;45403;-39
2022/09/30 01:50:22;;;;;;;;;25.00;18.00;;;;;13.70;55.54;100288.19;5088766;27;45397;-40
2022/09/30 01:52:59;;;;;;;;;18.00;14.75;;;;;13.70;55.80;100306.59;5091478;27;45585;-39
2022/09/30 01:55:48;;;;;;;;;16.75;16.00;;;;;13.70;55.41;100306.59;5072053;27;47092;-39
2022/09/30 01:58:18;;;;;;;;;23.25;21.75;;;;;13.70;55.64;100305.75;5067237;27;46997;-41
2022/09/30 02:00:48;;;;;;;;;23.25;19.25;;;;;13.68;55.59;100301.41;5096372;27;45338;-39
2022/09/30 02:03:36;;;;;;;;;25.25;19.75;;;;;13.69;55.52;100310.16;5079370;27;45508;-39
2022/09/30 02:06:06;;;;;;;;;21.50;20.25;;;;;13.65;56.03;100301.56;5075099;27;45569;-38
2022/09/30 02:08:45;;;;;;;;;22.50;20.00;;;;;13.64;55.80;100291.97;5069450;27;45498;-39
2022/09/30 02:11:18;;;;;;;;;22.00;18.00;;;;;13.65;55.94;100293.69;5094028;27;45416;-38
2022/09/30 02:13:55;;;;;;;;;20.25;18.00;;;;;13.64;55.80;100294.59;5080964;27;45364;-39
2022/09/30 02:16:28;;;;;;;;;21.50;18.25;;;;;13.65;55.76;100298.94;5064122;27;45547;-39
2022/09/30 02:19:02;;;;;;;;;21.25;16.75;;;;;13.66;55.70;100300.63;5090038;27;46282;-39
2022/09/30 02:21:32;;;;;;;;;21.50;20.25;;;;;13.64;55.71;100294.59;5088946;27;45446;-39
2022/09/30 02:24:04;;;;;;;;;21.00;18.75;;;;;13.67;55.91;100301.50;5094711;27;45556;-38
2022/09/30 02:26:33;;;;;;;;;24.00;18.75;;;;;13.65;55.88;100298.06;5076785;27;45200;-38
2022/09/30 02:29:04;;;;;;;;;25.50;21.50;;;;;13.66;55.91;100300.63;5067276;27;45453;-39
2022/09/30 02:31:32;;;;;;;;;20.00;19.25;;;;;13.67;55.57;100289.19;5096033;27;45355;-39
2022/09/30 02:34:18;;;;;;;;;19.75;18.00;;;;;13.67;56.08;100283.94;5077207;27;45367;-39
2022/09/30 02:36:51;;;;;;;;;20.50;18.50;;;;;13.69;55.91;100286.50;5067075;27;45526;-39
2022/09/30 02:39:39;;;;;;;;;22.75;16.75;;;;;13.70;55.64;100287.34;5081298;27;46006;-39
2022/09/30 02:42:19;;;;;;;;;20.25;18.00;;;;;13.68;56.00;100285.63;5079603;27;45410;-39
2022/09/30 02:44:44;;;;;;;;;19.50;17.50;;;;;13.68;56.03;100290.88;5076043;27;45383;-38
2022/09/30 02:47:45;;;;;;;;;16.50;16.00;;;;;13.67;55.53;100298.88;5087391;27;45213;-39
2022/09/30 02:50:16;;;;;;;;;21.50;19.75;;;;;13.66;55.96;100300.63;5087492;27;45446;-39
2022/09/30 02:52:48;;;;;;;;;24.50;21.00;;;;;13.64;56.18;100307.75;5095423;27;45319;-38
2022/09/30 02:55:17;;;;;;;;;22.75;20.50;;;;;13.62;56.07;100306.97;5094160;27;45254;-39
2022/09/30 02:57:55;;;;;;;;;21.25;17.50;;;;;13.62;56.36;100309.59;5083179;27;45343;-39
2022/09/30 03:00:21;;;;;;;;;26.00;22.50;;;;;13.62;56.44;100300.84;5089226;27;46922;-39
2022/09/30 03:02:47;;;;;;;;;23.00;17.75;;;;;13.62;56.39;100311.38;5074733;27;45681;-39
2022/09/30 03:05:12;;;;;;;;;22.00;21.00;;;;;13.58;55.96;100312.41;5083046;27;65053;-39
2022/09/30 03:07:39;;;;;;;;;22.50;19.25;;;;;13.59;56.32;100314.97;5073698;28;45498;-39
2022/09/30 03:10:13;;;;;;;;;27.50;23.00;;;;;13.58;56.54;100313.28;5083182;27;46317;-39
2022/09/30 03:13:04;;;;;;;;;22.50;18.25;;;;;13.57;56.48;100321.25;5096924;27;45893;-39
2022/09/30 03:15:38;;;;;;;;;20.00;17.25;;;;;13.54;56.38;100318.75;5054355;27;45458;-38
2022/09/30 03:18:22;;;;;;;;;20.75;19.25;;;;;13.52;56.66;100331.13;5090140;27;45530;-38
2022/09/30 03:21:08;;;;;;;;;25.00;21.00;;;;;13.48;56.53;100333.03;5079620;27;46124;-39
2022/09/30 03:24:01;;;;;;;;;26.75;17.75;;;;;13.45;56.82;100347.16;5076663;27;45874;-39
2022/09/30 03:27:03;;;;;;;;;19.25;16.00;;;;;13.42;57.16;100344.69;5090073;27;45236;-38
2022/09/30 03:29:46;;;;;;;;;19.75;17.75;;;;;13.37;56.68;100357.19;5095865;27;45226;-39
2022/09/30 03:32:29;;;;;;;;;20.75;18.50;;;;;13.35;56.49;100360.78;5100646;27;46408;-39
2022/09/30 03:35:13;;;;;;;;;18.50;17.50;;;;;13.32;57.06;100356.53;5096727;27;45931;-38
2022/09/30 03:37:45;;;;;;;;;16.75;16.00;;;;;13.31;57.17;100362.69;5099411;27;45395;-39
2022/09/30 03:40:22;;;;;;;;;14.00;11.00;;;;;13.25;56.91;100366.41;5085670;27;45246;-39
2022/09/30 03:42:53;;;;;;;;;21.75;16.50;;;;;13.24;57.35;100367.34;5095852;27;46162;-39
2022/09/30 03:45:40;;;;;;;;;20.25;18.25;;;;;13.22;56.81;100374.44;5086161;27;45490;-39
2022/09/30 03:48:08;;;;;;;;;18.25;17.50;;;;;13.22;57.08;100382.31;5079386;27;46942;-38
2022/09/30 03:50:35;;;;;;;;;18.50;17.25;;;;;13.21;57.16;100393.75;5073518;27;46493;-39
2022/09/30 03:53:00;;;;;;;;;16.00;14.75;;;;;13.20;57.39;100399.06;5095274;27;47057;-39
2022/09/30 03:55:27;;;;;;;;;16.50;14.00;;;;;13.15;57.66;100399.25;5060238;28;45603;-39
2022/09/30 03:57:53;;;;;;;;;18.25;16.50;;;;;13.11;57.21;100405.59;5064117;27;45408;-39
2022/09/30 04:00:19;;;;;;;;;14.50;14.50;;;;;13.06;57.01;100400.50;5083110;27;45399;-39
2022/09/30 04:02:45;;;;;;;;;14.25;13.00;;;;;13.04;56.92;100404.13;5097717;27;46137;-39
2022/09/30 04:05:10;;;;;;;;;17.00;15.50;;;;;13.01;56.83;100410.34;5099899;27;45456;-39
2022/09/30 04:07:36;;;;;;;;;16.00;15.00;;;;;12.98;56.86;100417.50;5073450;27;45481;-39
2022/09/30 04:10:02;;;;;;;;;16.00;15.00;;;;;12.95;56.90;100421.13;5098229;27;62600;-38
2022/09/30 04:12:27;;;;;;;;;18.75;16.75;;;;;12.92;57.10;100426.50;5086666;27;45480;-39
2022/09/30 04:14:52;;;;;;;;;18.25;14.75;;;;;12.88;57.14;100423.16;5070304;27;59800;-39
2022/09/30 04:17:18;;;;;;;;;16.00;15.50;;;;;12.87;57.56;100436.34;5087176;27;56430;-39
2022/09/30 04:19:43;;;;;;;;;18.00;15.50;;;;;12.83;57.52;100434.78;5101574;27;45403;-38
2022/09/30 04:22:09;;;;;;;;;14.75;14.50;;;;;12.81;57.43;100447.13;5093198;27;69409;-39
2022/09/30 04:24:34;;;;;;;;;16.75;16.25;;;;;12.78;57.29;100441.97;5093421;27;45336;-39
2022/09/30 04:27:00;;;;;;;;;14.75;13.00;;;;;12.71;57.67;100447.50;5088522;27;45450;-39
2022/09/30 04:29:26;;;;;;;;;18.00;15.50;;;;;12.69;57.46;100453.72;5093182;27;45325;-38
2022/09/30 04:31:51;;;;;;;;;16.00;14.75;;;;;12.67;57.67;100453.78;5099763;27;45393;-39
2022/09/30 04:34:16;;;;;;;;;20.00;16.75;;;;;12.64;57.76;100466.16;5085345;27;56306;-38
2022/09/30 04:36:42;;;;;;;;;18.50;14.25;;;;;12.60;57.91;100460.19;5085016;27;59566;-38
2022/09/30 04:39:07;;;;;;;;;16.50;15.25;;;;;12.58;58.08;100461.19;5101442;27;45395;-38
2022/09/30 04:41:33;;;;;;;;;12.00;12.00;;;;;12.54;57.78;100460.44;5081917;27;45374;-38
2022/09/30 04:43:58;;;;;;;;;17.75;14.50;;;;;12.51;58.36;100461.41;5095746;27;69390;-39
2022/09/30 04:46:24;;;;;;;;;16.75;12.50;;;;;12.49;58.05;100472.88;5067393;27;45678;-39
2022/09/30 04:48:49;;;;;;;;;17.50;13.25;;;;;12.48;58.03;100468.53;5057263;27;70353;-39
2022/09/30 04:51:19;;;;;;;;;13.50;12.25;;;;;12.47;57.97;100464.22;5080099;27;70170;-39
2022/09/30 04:53:45;;;;;;;;;14.50;14.00;;;;;12.46;57.92;100462.50;5080771;27;46011;-39
2022/09/30 04:56:11;;;;;;;;;16.00;13.75;;;;;12.44;57.66;100466.97;5100393;27;45350;-39
2022/09/30 04:58:36;;;;;;;;;17.50;14.75;;;;;12.43;57.70;100470.50;5091096;27;45644;-38
2022/09/30 05:01:07;;;;;;;;;17.25;15.75;;;;;12.44;57.81;100473.06;5098616;27;45969;-39
2022/09/30 05:03:33;;;;;;;;;18.00;14.25;;;;;12.44;57.84;100472.22;5093908;27;45750;-39
2022/09/30 05:05:59;;;;;;;;;16.00;15.00;;;;;12.43;57.90;100473.13;5100941;27;45356;-39
2022/09/30 05:08:24;;;;;;;;;17.75;17.00;;;;;12.42;57.97;100468.81;5082710;27;45450;-39
2022/09/30 05:10:58;;;;;;;;;18.50;16.00;;;;;12.43;57.95;100479.25;5100448;27;46682;-39
2022/09/30 05:13:25;;;;;;;;;16.50;16.00;;;;;12.45;58.11;100485.28;5099811;27;45875;-39
2022/09/30 05:15:50;;;;;;;;;15.75;15.25;;;;;12.46;57.68;100480.88;5097017;27;45344;-39
2022/09/30 05:18:16;;;;;;;;;21.50;14.00;;;;;12.47;57.57;100486.06;5088298;27;45599;-39
2022/09/30 05:20:41;;;;;;;;;15.25;14.50;;;;;12.47;57.86;100480.81;5100138;27;45358;-39
2022/09/30 05:23:07;;;;;;;;;20.00;13.75;;;;;12.45;57.71;100482.66;5099687;27;63833;-39
2022/09/30 05:25:34;;;;;;;;;16.50;14.00;;;;;12.45;57.87;100487.91;5080975;27;45333;-39
2022/09/30 05:28:00;;;;;;;;;17.00;14.75;;;;;12.41;57.64;100482.81;5077363;27;45524;-39
2022/09/30 05:30:25;;;;;;;;;20.50;15.25;;;;;12.39;58.01;100485.50;5100285;27;45686;-39
2022/09/30 05:32:50;;;;;;;;;18.00;14.00;;;;;12.37;57.97;100482.09;5067483;27;66333;-39
2022/09/30 05:35:16;;;;;;;;;19.75;15.00;;;;;12.38;58.04;100488.19;5086924;27;45363;-39
2022/09/30 05:37:42;;;;;;;;;18.00;13.75;;;;;12.35;57.33;100487.38;5099140;27;69829;-39
2022/09/30 05:40:07;;;;;;;;;15.25;14.00;;;;;12.34;57.61;100498.81;5092682;27;47169;-39
2022/09/30 05:42:34;;;;;;;;;16.25;14.25;;;;;12.33;58.05;100504.13;5100542;27;45240;-39
2022/09/30 05:45:00;;;;;;;;;18.75;15.00;;;;;12.33;57.95;100504.97;5070194;27;45561;-39
2022/09/30 05:47:25;;;;;;;;;14.50;14.25;;;;;12.31;57.97;100501.56;5075500;27;45384;-39
2022/09/30 05:49:51;;;;;;;;;19.00;14.25;;;;;12.30;57.87;100502.44;5067843;27;74195;-39
2022/09/30 05:52:16;;;;;;;;;16.50;14.00;;;;;12.30;58.35;100512.09;5093816;27;49843;-39
2022/09/30 05:54:41;;;;;;;;;18.50;13.00;;;;;12.31;58.13;100500.72;5094213;27;62587;-38
2022/09/30 05:57:07;;;;;;;;;14.50;14.50;;;;;12.33;57.83;100504.97;5097889;27;69263;-38
2022/09/30 05:59:32;;;;;;;;;12.25;11.75;;;;;12.35;58.08;100499.66;5093647;27;46243;-39
2022/09/30 06:01:58;;;;;;;;;85.75;73.50;;;;;12.38;57.82;100509.19;5092718;27;45418;-38
2022/09/30 06:04:23;;;;;;;;;28.75;25.00;;;;;12.39;58.04;100518.78;5069021;27;64125;-38
2022/09/30 06:06:48;;;;;;;;;16.00;16.00;;;;;12.37;57.68;100512.72;5092863;27;52196;-39
2022/09/30 06:09:15;;;;;;;;;20.50;18.00;;;;;12.38;58.09;100531.03;5073502;27;67374;-38
2022/09/30 06:11:41;;;;;;;;;15.50;13.75;;;;;12.38;57.78;100530.16;5065835;27;45337;-39
2022/09/30 06:14:07;;;;;;;;;17.75;15.50;;;;;12.39;57.72;100535.38;5097728;27;45331;-39
2022/09/30 06:16:32;;;;;;;;;19.25;17.50;;;;;12.40;57.61;100531.84;5099180;27;45546;-38
2022/09/30 06:18:58;;;;;;;;;16.50;16.25;;;;;12.42;57.85;100534.41;5074405;27;45906;-38
2022/09/30 06:21:24;;;;;;;;;17.25;17.25;;;;;12.40;57.89;100544.13;5090898;27;45541;-39
2022/09/30 06:23:49;;;;;;;;;18.00;17.25;;;;;12.40;57.85;100547.59;5084898;27;45375;-38
2022/09/30 06:26:15;;;;;;;;;22.00;18.00;;;;;12.39;58.13;100556.34;5085405;27;45418;-39
2022/09/30 06:28:41;;;;;;;;;17.75;15.50;;;;;12.41;58.13;100554.56;5088500;27;46225;-38
2022/09/30 06:31:07;;;;;;;;;23.75;18.50;;;;;12.43;58.22;100557.97;5089677;27;46020;-38
2022/09/30 06:33:32;;;;;;;;;17.50;13.00;;;;;12.45;57.88;100569.25;5082268;27;45332;-38
2022/09/30 06:35:58;;;;;;;;;19.25;15.75;;;;;12.46;58.24;100557.84;5080470;27;45780;-38
2022/09/30 06:38:26;;;;;;;;;16.00;15.75;;;;;12.48;57.84;100561.28;5076731;27;46377;-39
2022/09/30 06:40:51;;;;;;;;;20.50;18.25;;;;;12.51;57.93;100560.31;5083026;27;45251;-39
2022/09/30 06:43:17;;;;;;;;;19.50;16.00;;;;;12.54;58.15;100566.28;5091245;27;68980;-38
2022/09/30 06:45:44;;;;;;;;;19.75;17.00;;;;;12.59;57.86;100567.88;5092591;27;45262;-40
2022/09/30 06:48:10;;;;;;;;;24.75;22.00;;;;;12.59;58.32;100575.75;5098969;27;45363;-39
2022/09/30 06:50:37;;;;;;;;;21.25;18.75;;;;;12.61;57.97;100572.16;5094425;27;67179;-40
2022/09/30 06:53:07;;;;;;;;;18.25;15.00;;;;;12.64;57.66;100579.06;5087242;27;45577;-39
2022/09/30 06:55:35;;;;;;;;;23.25;20.75;;;;;12.66;57.90;100577.22;5089829;27;45213;-39
2022/09/30 06:58:00;;;;;;;;;18.00;17.75;;;;;12.66;58.13;100579.84;5097902;27;46469;-40
2022/09/30 07:00:27;;;;;;;;;21.50;18.00;;;;;12.69;57.98;100577.13;5097038;27;67934;-39
2022/09/30 07:02:55;;;;;;;;;22.25;17.25;;;;;12.71;57.78;100570.03;5095823;27;45489;-43
2022/09/30 07:05:20;;;;;;;;;20.75;18.75;;;;;12.73;57.88;100570.84;5102384;27;45442;-40
2022/09/30 07:07:48;;;;;;;;;19.75;19.75;;;;;12.76;57.67;100577.75;5097988;27;45314;-41
2022/09/30 07:10:13;;;;;;;;;21.00;19.00;;;;;12.77;57.76;100572.44;5082750;27;46041;-40
2022/09/30 07:12:41;;;;;;;;;18.75;16.50;;;;;12.82;57.67;100575.75;5095275;27;45522;-41
2022/09/30 07:15:07;;;;;;;;;23.75;20.00;;;;;12.85;57.75;100556.38;5088711;27;45419;-39
2022/09/30 07:17:33;;;;;;;;;19.75;16.75;;;;;12.87;57.52;100568.53;5089326;27;47535;-39
2022/09/30 07:19:58;;;;;;;;;22.75;18.75;;;;;12.89;57.61;100564.06;5097836;27;51381;-38
2022/09/30 07:22:27;;;;;;;;;22.50;19.00;;;;;12.93;57.51;100571.84;5083562;27;45395;-39
2022/09/30 07:24:53;;;;;;;;;22.50;18.25;;;;;12.95;57.83;100568.22;5086670;27;45220;-39
2022/09/30 07:27:19;;;;;;;;;18.50;17.75;;;;;12.98;57.80;100569.88;5078354;27;46352;-40
2022/09/30 07:29:45;;;;;;;;;21.50;17.75;;;;;13.02;57.78;100569.69;5083132;27;45993;-39
2022/09/30 07:32:11;;;;;;;;;19.50;19.50;;;;;13.07;57.40;100569.53;5089859;27;45432;-39
2022/09/30 07:34:37;;;;;;;;;24.50;20.75;;;;;13.12;57.18;100572.81;5092197;27;45390;-39
2022/09/30 07:37:03;;;;;;;;;26.25;22.00;;;;;13.17;57.48;100577.88;5087342;27;47504;-39
2022/09/30 07:39:28;;;;;;;;;23.75;20.25;;;;;13.20;57.76;100583.84;5085032;27;45742;-39
2022/09/30 07:41:54;;;;;;;;;27.75;24.25;;;;;13.24;57.39;100588.09;5102613;27;45228;-39
2022/09/30 07:44:19;;;;;;;;;26.75;22.00;;;;;13.27;57.10;100581.84;5102795;27;45461;-39
2022/09/30 07:46:44;;;;;;;;;30.50;23.00;;;;;13.31;57.48;100586.09;5087907;27;47348;-39
2022/09/30 07:49:13;;;;;;;;;27.50;22.75;;;;;13.35;57.20;100586.81;5092178;27;45277;-39
2022/09/30 07:51:40;;;;;;;;;28.75;22.75;;;;;13.40;56.90;100579.59;5100889;27;45392;-39
2022/09/30 07:54:14;;;;;;;;;25.50;23.25;;;;;13.46;57.29;100582.84;5102676;27;45358;-39
2022/09/30 07:56:40;;;;;;;;;23.75;22.00;;;;;13.53;56.88;100585.19;5089633;27;46027;-39
2022/09/30 07:59:06;;;;;;;;;28.00;23.25;;;;;13.56;57.18;100585.91;5100242;27;45873;-39
2022/09/30 08:01:33;;;;;;;;;22.75;21.75;;;;;13.63;56.73;100591.78;5102233;27;45422;-41
2022/09/30 08:04:00;;;;;;;;;26.50;22.00;;;;;13.65;56.79;100585.56;5102308;27;45451;-40
2022/09/30 08:06:27;;;;;;;;;29.00;25.25;;;;;13.69;57.03;100594.16;5090632;27;46352;-39
2022/09/30 08:08:54;;;;;;;;;26.50;23.00;;;;;13.73;56.95;100589.63;5111312;27;45298;-40
2022/09/30 08:11:20;;;;;;;;;24.75;19.75;;;;;13.77;56.71;100588.56;5102393;27;45332;-39
2022/09/30 08:13:50;;;;;;;;;29.25;26.50;;;;;13.82;56.53;100586.59;5101319;27;45462;-40
2022/09/30 08:16:15;;;;;;;;;31.75;26.75;;;;;13.88;56.44;100588.13;5091873;27;46252;-39
2022/09/30 08:18:41;;;;;;;;;32.25;29.25;;;;;13.92;56.28;100589.72;5079200;28;66672;-39
2022/09/30 08:21:06;;;;;;;;;31.50;28.25;;;;;13.97;56.12;100598.22;5091269;27;67801;-40
2022/09/30 08:23:32;;;;;;;;;29.50;26.00;;;;;14.01;56.30;100591.94;5092716;27;60275;-39
2022/09/30 08:26:03;;;;;;;;;51.75;38.25;;;;;14.04;56.42;100592.66;5102356;27;45444;-39
2022/09/30 08:28:30;;;;;;;;;40.00;33.75;;;;;14.12;56.28;100596.72;5101393;27;45782;-39
2022/09/30 08:31:11;;;;;;;;;40.25;28.25;;;;;14.15;56.08;100592.19;5084038;27;45463;-40
2022/09/30 08:33:37;;;;;;;;;33.50;28.75;;;;;14.19;56.15;100592.91;5096442;27;45322;-41
2022/09/30 08:36:04;;;;;;;;;29.25;27.00;;;;;14.25;56.14;100595.25;5083141;27;46170;-39
2022/09/30 08:38:30;;;;;;;;;29.25;24.50;;;;;14.29;55.82;100596.84;5081451;27;45372;-39
2022/09/30 08:41:45;;;;;;;;;34.75;27.50;;;;;14.38;55.82;100598.19;5083578;27;45298;-39
2022/09/30 08:44:35;;;;;;;;;18.50;18.25;;;;;14.43;55.11;100598.84;5057749;27;45484;-39
2022/09/30 08:47:06;;;;;;;;;48.00;38.75;;;;;14.49;54.94;100601.19;5090698;27;45375;-40
2022/09/30 08:49:48;;;;;;;;;52.25;41.75;;;;;14.54;54.75;100599.22;5082545;27;47039;-40
2022/09/30 08:52:18;;;;;;;;;37.25;32.25;;;;;14.61;54.33;100603.31;5079574;28;45439;-46
2022/09/30 08:54:47;;;;;;;;;26.50;26.25;;;;;14.68;54.66;100592.47;5100682;27;45357;-42
2022/09/30 08:57:13;;;;;;;;;27.00;24.00;;;;;14.72;54.34;100594.06;5091803;27;45482;-40
2022/09/30 08:59:53;;;;;;;;;26.75;25.25;;;;;14.78;54.53;100596.38;5082738;27;45507;-38
2022/09/30 09:02:22;;;;;;;;;31.75;26.25;;;;;14.87;54.30;100601.22;5081733;27;45260;-41
2022/09/30 09:04:50;;;;;;;;;47.50;36.75;;;;;14.93;54.16;100595.69;5079954;28;45319;-40
2022/09/30 09:07:24;;;;;;;;;28.00;23.75;;;;;14.98;53.90;100598.09;5078650;27;47224;-46
2022/09/30 09:10:23;;;;;;;;;27.00;22.75;;;;;15.03;53.41;100598.72;5099544;27;45788;-43
2022/09/30 09:13:26;;;;;;;;;23.00;22.00;;;;;15.09;53.73;100600.22;5092187;27;45379;-41
2022/09/30 09:16:07;;;;;;;;;30.75;24.00;;;;;15.18;53.65;100599.78;5070913;27;45271;-41
2022/09/30 09:18:51;;;;;;;;;31.25;28.00;;;;;15.23;53.50;100597.78;5099028;27;46231;-42
2022/09/30 09:21:21;;;;;;;;;33.00;27.75;;;;;15.29;53.25;100594.81;5096394;27;46028;-40
2022/09/30 09:23:49;;;;;;;;;35.50;27.50;;;;;15.35;53.50;100607.72;5101507;27;45237;-41
2022/09/30 09:26:15;;;;;;;;;32.00;25.75;;;;;15.39;53.33;100611.06;5101193;27;45433;-40
2022/09/30 09:28:58;;;;;;;;;27.25;26.25;;;;;15.46;52.98;100612.47;5100749;27;46232;-42
2022/09/30 09:31:24;;;;;;;;;56.25;43.25;;;;;15.50;52.45;100618.44;5089947;27;45458;-41
2022/09/30 09:33:49;;;;;;;;;31.75;29.50;;;;;15.55;52.67;100616.44;5098469;27;45313;-42
2022/09/30 09:36:17;;;;;;;;;15.25;14.00;;;;;15.61;51.83;100625.81;5098728;27;45475;-41
2022/09/30 09:39:03;;;;;;;;;15.75;13.25;;;;;15.65;51.43;100627.38;5070339;28;47028;-42
2022/09/30 09:41:47;;;;;;;;;12.25;10.75;;;;;15.69;51.36;100631.56;5066151;28;45591;-41
2022/09/30 09:44:48;;;;;;;;;12.00;11.00;;;;;15.73;51.07;100619.94;5096873;27;45738;-41
2022/09/30 09:47:14;;;;;;;;;12.50;12.50;;;;;15.78;51.04;100628.50;5081984;27;46057;-40
2022/09/30 09:49:49;;;;;;;;;14.25;10.75;;;;;15.77;50.87;100618.03;5099197;27;46559;-40
2022/09/30 09:52:27;;;;;;;;;14.00;11.00;;;;;15.86;51.09;100628.09;5065510;27;45851;-40
2022/09/30 09:54:55;;;;;;;;;10.00;9.00;;;;;15.90;50.17;100630.53;5088538;27;45451;-40
2022/09/30 09:57:26;;;;;;;;;10.00;9.50;;;;;15.94;49.95;100626.78;5082755;27;45509;-40
2022/09/30 10:03:02;;;;;;;;;10.00;9.00;;;;;16.02;49.82;100622.91;5100211;27;45985;-41
2022/09/30 10:05:38;;;;;;;;;9.00;8.00;;;;;16.05;49.68;100620.09;5095689;27;45147;-39
2022/09/30 10:08:10;;;;;;;;;8.00;8.00;;;;;16.11;49.46;100619.78;5099808;27;45447;-39
2022/09/30 10:10:48;;;;;;;;;10.00;8.75;;;;;16.17;49.03;100616.81;5092316;27;46240;-42
2022/09/30 10:13:22;;;;;;;;;10.50;9.75;;;;;16.23;49.09;100623.56;5107762;27;45171;-41
2022/09/30 10:15:51;;;;;;;;;11.00;9.50;;;;;16.26;48.87;100620.78;5063564;28;45497;-40
2022/09/30 10:18:25;;;;;;;;;10.25;9.50;;;;;16.29;48.92;100616.19;5072963;27;45387;-40
2022/09/30 10:20:54;;;;;;;;;11.75;9.25;;;;;16.33;48.96;100612.44;5098003;27;46077;-39
2022/09/30 10:23:24;;;;;;;;;11.50;10.25;;;;;16.41;48.61;100617.31;5078672;28;45249;-40
2022/09/30 10:26:04;;;;;;;;;11.25;11.25;;;;;16.46;48.34;100610.00;5080226;27;45311;-41
2022/09/30 10:28:34;;;;;;;;;9.50;8.50;;;;;16.52;48.22;100617.59;5099534;27;47267;-40
2022/09/30 10:31:05;;;;;;;;;19.50;16.50;;;;;16.58;48.05;100616.41;5082706;27;46477;-40
2022/09/30 10:33:39;;;;;;;;;12.25;10.50;;;;;16.63;47.88;100626.75;5084711;27;45495;-39
2022/09/30 10:36:08;;;;;;;;;14.25;10.25;;;;;16.66;47.62;100627.44;5095241;27;45184;-40
2022/09/30 10:38:35;;;;;;;;;8.75;8.75;;;;;16.70;47.07;100617.53;5074725;28;45373;-40
2022/09/30 10:41:02;;;;;;;;;12.75;10.00;;;;;16.73;46.94;100620.00;5055891;27;46929;-41
2022/09/30 10:43:43;;;;;;;;;11.50;9.75;;;;;16.77;46.87;100621.56;5079048;27;45893;-41
2022/09/30 10:46:09;;;;;;;;;13.00;11.25;;;;;16.82;46.83;100623.94;5094070;27;45438;-39
2022/09/30 10:48:35;;;;;;;;;16.50;11.50;;;;;16.86;47.37;100620.22;5081241;27;45346;-40
2022/09/30 10:51:02;;;;;;;;;13.75;12.00;;;;;16.91;46.76;100619.97;5087613;27;46264;-40
2022/09/30 10:53:31;;;;;;;;;13.25;12.50;;;;;16.93;46.69;100613.66;5081415;27;45796;-40
2022/09/30 10:55:57;;;;;;;;;14.50;11.25;;;;;16.98;46.89;100613.41;5069609;28;45251;-42
2022/09/30 10:58:39;;;;;;;;;11.75;10.75;;;;;16.98;46.74;100608.09;5088568;27;45306;-40
2022/09/30 11:01:34;;;;;;;;;13.00;11.50;;;;;17.06;47.19;100604.09;5094113;27;46286;-40
2022/09/30 11:04:10;;;;;;;;;10.50;9.25;;;;;17.12;46.50;100600.25;5072073;27;45776;-42
2022/09/30 11:06:39;;;;;;;;;12.00;10.25;;;;;17.15;46.75;100608.00;5094717;27;45246;-41
2022/09/30 11:09:33;;;;;;;;;10.50;9.00;;;;;17.19;46.79;100614.84;5098602;27;45438;-40
2022/09/30 11:12:04;;;;;;;;;9.50;8.00;;;;;17.22;45.63;100616.47;5060052;28;47177;-40
2022/09/30 11:14:45;;;;;;;;;7.25;6.25;;;;;17.26;45.78;100618.84;5092123;27;45284;-40
2022/09/30 11:17:31;;;;;;;;;9.75;7.25;;;;;17.32;45.68;100619.44;5079369;27;45340;-39
2022/09/30 11:20:11;;;;;;;;;7.00;6.25;;;;;17.36;45.15;100613.88;5096301;27;45361;-39
2022/09/30 11:22:45;;;;;;;;;10.50;7.25;;;;;17.38;45.74;100619.94;5096930;27;45657;-39
2022/09/30 11:25:16;;;;;;;;;7.75;7.25;;;;;17.41;45.85;100618.91;5097769;27;45227;-41
2022/09/30 11:28:01;;;;;;;;;7.25;6.25;;;;;17.41;45.29;100606.53;5077406;28;45371;-38
2022/09/30 11:30:37;;;;;;;;;8.00;6.25;;;;;17.46;45.43;100608.94;5071145;28;45938;-38